sensor_id;sensor_type;location;lat;lon;timestamp;P1;durP1;ratioP1;P2;durP2;ratioP2
24663;SDS011;12791;50.992;13.788;2022-08-03T00:00:50;1.65;;;1.55;;
24663;SDS011;12791;50.992;13.788;2022-08-03T00:03:17;1.77;;;1.67;;
24663;SDS011;12791;50.992;13.788;2022-08-03T00:05:43;1.67;;;1.58;;
24663;SDS011;12791;50.992;13.788;2022-08-03T00:08:10;1.77;;;1.70;;
24663;SDS011;12791;50.992;13.788;2022-08-03T00:10:37;1.33;;;1.33;;
24663;SDS011;12791;50.992;13.788;2022-08-03T00:13:03;1.73;;;1.63;;
24663;SDS011;12791;50.992;13.788;2022-08-03T00:15:30;1.92;;;1.83;;
24663;SDS011;12791;50.992;13.788;2022-08-03T00:17:58;1.98;;;1.88;;
24663;SDS011;12791;50.992;13.788;2022-08-03T00:20:24;1.50;;;1.40;;
24663;SDS011;12791;50.992;13.788;2022-08-03T00:22:51;2.78;;;2.17;;
24663;SDS011;12791;50.992;13.788;2022-08-03T00:25:18;1.77;;;1.67;;
24663;SDS011;12791;50.992;13.788;2022-08-03T00:27:44;2.05;;;1.77;;
24663;SDS011;12791;50.992;13.788;2022-08-03T00:30:11;1.23;;;1.23;;
24663;SDS011;12791;50.992;13.788;2022-08-03T00:32:38;1.55;;;1.55;;
24663;SDS011;12791;50.992;13.788;2022-08-03T00:35:06;2.50;;;1.67;;
24663;SDS011;12791;50.992;13.788;2022-08-03T00:37:33;1.50;;;1.50;;
24663;SDS011;12791;50.992;13.788;2022-08-03T00:40:00;2.00;;;1.88;;
24663;SDS011;12791;50.992;13.788;2022-08-03T00:42:27;1.88;;;1.77;;
24663;SDS011;12791;50.992;13.788;2022-08-03T00:44:53;2.00;;;1.90;;
24663;SDS011;12791;50.992;13.788;2022-08-03T00:47:20;1.77;;;1.67;;
24663;SDS011;12791;50.992;13.788;2022-08-03T00:49:46;3.22;;;1.77;;
24663;SDS011;12791;50.992;13.788;2022-08-03T00:52:15;2.08;;;1.88;;
24663;SDS011;12791;50.992;13.788;2022-08-03T00:54:41;1.55;;;1.50;;
24663;SDS011;12791;50.992;13.788;2022-08-03T00:57:08;1.83;;;1.73;;
24663;SDS011;12791;50.992;13.788;2022-08-03T00:59:34;2.10;;;1.90;;
24663;SDS011;12791;50.992;13.788;2022-08-03T01:02:03;1.98;;;1.88;;
24663;SDS011;12791;50.992;13.788;2022-08-03T01:04:30;2.45;;;1.70;;
24663;SDS011;12791;50.992;13.788;2022-08-03T01:06:59;1.67;;;1.67;;
24663;SDS011;12791;50.992;13.788;2022-08-03T01:09:42;2.00;;;1.90;;
24663;SDS011;12791;50.992;13.788;2022-08-03T01:12:19;2.00;;;1.90;;
24663;SDS011;12791;50.992;13.788;2022-08-03T01:14:54;2.10;;;1.90;;
24663;SDS011;12791;50.992;13.788;2022-08-03T01:17:30;1.92;;;1.85;;
24663;SDS011;12791;50.992;13.788;2022-08-03T01:20:02;2.00;;;1.88;;
24663;SDS011;12791;50.992;13.788;2022-08-03T01:22:51;2.08;;;1.98;;
24663;SDS011;12791;50.992;13.788;2022-08-03T01:25:37;1.90;;;1.80;;
24663;SDS011;12791;50.992;13.788;2022-08-03T01:28:19;3.03;;;2.25;;
24663;SDS011;12791;50.992;13.788;2022-08-03T01:30:55;2.00;;;1.90;;
24663;SDS011;12791;50.992;13.788;2022-08-03T01:33:27;2.03;;;1.92;;
24663;SDS011;12791;50.992;13.788;2022-08-03T01:36:01;1.85;;;1.80;;
24663;SDS011;12791;50.992;13.788;2022-08-03T01:38:31;2.65;;;2.08;;
24663;SDS011;12791;50.992;13.788;2022-08-03T01:41:00;1.85;;;1.60;;
24663;SDS011;12791;50.992;13.788;2022-08-03T01:43:29;2.00;;;1.88;;
24663;SDS011;12791;50.992;13.788;2022-08-03T01:45:57;1.67;;;1.58;;
24663;SDS011;12791;50.992;13.788;2022-08-03T01:48:25;2.30;;;2.20;;
24663;SDS011;12791;50.992;13.788;2022-08-03T01:50:53;2.33;;;2.00;;
24663;SDS011;12791;50.992;13.788;2022-08-03T01:53:22;1.55;;;1.55;;
24663;SDS011;12791;50.992;13.788;2022-08-03T01:55:51;2.10;;;2.00;;
24663;SDS011;12791;50.992;13.788;2022-08-03T01:58:20;2.20;;;2.00;;
24663;SDS011;12791;50.992;13.788;2022-08-03T02:00:48;1.85;;;1.75;;
24663;SDS011;12791;50.992;13.788;2022-08-03T02:03:17;2.17;;;1.98;;
24663;SDS011;12791;50.992;13.788;2022-08-03T02:05:47;1.77;;;1.75;;
24663;SDS011;12791;50.992;13.788;2022-08-03T02:08:15;2.15;;;1.67;;
24663;SDS011;12791;50.992;13.788;2022-08-03T02:10:43;2.28;;;2.17;;
24663;SDS011;12791;50.992;13.788;2022-08-03T02:13:11;2.25;;;2.15;;
24663;SDS011;12791;50.992;13.788;2022-08-03T02:15:40;2.08;;;1.98;;
24663;SDS011;12791;50.992;13.788;2022-08-03T02:18:08;2.05;;;1.95;;
24663;SDS011;12791;50.992;13.788;2022-08-03T02:20:37;2.20;;;2.00;;
24663;SDS011;12791;50.992;13.788;2022-08-03T02:23:04;2.25;;;2.15;;
24663;SDS011;12791;50.992;13.788;2022-08-03T02:25:32;2.03;;;1.92;;
24663;SDS011;12791;50.992;13.788;2022-08-03T02:28:05;3.17;;;1.80;;
24663;SDS011;12791;50.992;13.788;2022-08-03T02:30:36;2.03;;;1.92;;
24663;SDS011;12791;50.992;13.788;2022-08-03T02:33:06;2.10;;;2.00;;
24663;SDS011;12791;50.992;13.788;2022-08-03T02:35:38;3.17;;;2.30;;
24663;SDS011;12791;50.992;13.788;2022-08-03T02:38:07;2.42;;;2.25;;
24663;SDS011;12791;50.992;13.788;2022-08-03T02:40:36;2.05;;;1.95;;
24663;SDS011;12791;50.992;13.788;2022-08-03T02:43:06;2.25;;;2.15;;
24663;SDS011;12791;50.992;13.788;2022-08-03T02:45:38;2.75;;;2.55;;
24663;SDS011;12791;50.992;13.788;2022-08-03T02:48:09;2.13;;;2.03;;
24663;SDS011;12791;50.992;13.788;2022-08-03T02:50:38;2.47;;;2.38;;
24663;SDS011;12791;50.992;13.788;2022-08-03T02:53:07;2.20;;;2.10;;
24663;SDS011;12791;50.992;13.788;2022-08-03T02:55:35;2.10;;;1.90;;
24663;SDS011;12791;50.992;13.788;2022-08-03T02:58:04;2.35;;;2.15;;
24663;SDS011;12791;50.992;13.788;2022-08-03T03:00:32;2.72;;;2.53;;
24663;SDS011;12791;50.992;13.788;2022-08-03T03:03:00;2.30;;;2.20;;
24663;SDS011;12791;50.992;13.788;2022-08-03T03:05:28;2.33;;;2.15;;
24663;SDS011;12791;50.992;13.788;2022-08-03T03:07:57;2.03;;;1.92;;
24663;SDS011;12791;50.992;13.788;2022-08-03T03:10:24;2.50;;;2.30;;
24663;SDS011;12791;50.992;13.788;2022-08-03T03:12:52;1.90;;;1.80;;
24663;SDS011;12791;50.992;13.788;2022-08-03T03:15:21;2.30;;;2.20;;
24663;SDS011;12791;50.992;13.788;2022-08-03T03:17:49;2.40;;;2.30;;
24663;SDS011;12791;50.992;13.788;2022-08-03T03:20:17;2.03;;;1.92;;
24663;SDS011;12791;50.992;13.788;2022-08-03T03:22:45;2.63;;;2.45;;
24663;SDS011;12791;50.992;13.788;2022-08-03T03:25:15;2.53;;;2.42;;
24663;SDS011;12791;50.992;13.788;2022-08-03T03:27:42;1.95;;;1.85;;
24663;SDS011;12791;50.992;13.788;2022-08-03T03:30:10;2.15;;;2.05;;
24663;SDS011;12791;50.992;13.788;2022-08-03T03:32:37;2.78;;;2.28;;
24663;SDS011;12791;50.992;13.788;2022-08-03T03:35:05;2.60;;;2.50;;
24663;SDS011;12791;50.992;13.788;2022-08-03T03:37:32;2.00;;;1.90;;
24663;SDS011;12791;50.992;13.788;2022-08-03T03:39:59;2.38;;;2.28;;
24663;SDS011;12791;50.992;13.788;2022-08-03T03:42:27;1.92;;;1.83;;
24663;SDS011;12791;50.992;13.788;2022-08-03T03:44:54;2.55;;;2.33;;
24663;SDS011;12791;50.992;13.788;2022-08-03T03:47:20;1.90;;;1.80;;
24663;SDS011;12791;50.992;13.788;2022-08-03T03:49:47;2.40;;;2.30;;
24663;SDS011;12791;50.992;13.788;2022-08-03T03:52:14;1.85;;;1.75;;
24663;SDS011;12791;50.992;13.788;2022-08-03T03:54:41;2.10;;;2.00;;
24663;SDS011;12791;50.992;13.788;2022-08-03T03:57:09;2.38;;;2.28;;
24663;SDS011;12791;50.992;13.788;2022-08-03T03:59:38;2.63;;;2.42;;
24663;SDS011;12791;50.992;13.788;2022-08-03T04:02:06;2.03;;;1.92;;
24663;SDS011;12791;50.992;13.788;2022-08-03T04:04:33;2.00;;;1.90;;
24663;SDS011;12791;50.992;13.788;2022-08-03T04:07:19;2.63;;;2.53;;
24663;SDS011;12791;50.992;13.788;2022-08-03T04:10:04;2.00;;;1.90;;
24663;SDS011;12791;50.992;13.788;2022-08-03T04:12:54;2.30;;;2.20;;
24663;SDS011;12791;50.992;13.788;2022-08-03T04:15:26;2.15;;;2.05;;
24663;SDS011;12791;50.992;13.788;2022-08-03T04:17:56;2.10;;;2.00;;
24663;SDS011;12791;50.992;13.788;2022-08-03T04:20:25;1.90;;;1.83;;
24663;SDS011;12791;50.992;13.788;2022-08-03T04:22:55;2.25;;;1.80;;
24663;SDS011;12791;50.992;13.788;2022-08-03T04:25:24;1.83;;;1.73;;
24663;SDS011;12791;50.992;13.788;2022-08-03T04:27:55;2.03;;;1.90;;
24663;SDS011;12791;50.992;13.788;2022-08-03T04:30:25;3.15;;;1.90;;
24663;SDS011;12791;50.992;13.788;2022-08-03T04:32:54;2.30;;;2.20;;
24663;SDS011;12791;50.992;13.788;2022-08-03T04:35:22;2.35;;;1.90;;
24663;SDS011;12791;50.992;13.788;2022-08-03T04:37:50;2.10;;;2.00;;
24663;SDS011;12791;50.992;13.788;2022-08-03T04:40:21;3.20;;;1.80;;
24663;SDS011;12791;50.992;13.788;2022-08-03T04:42:51;3.60;;;2.25;;
24663;SDS011;12791;50.992;13.788;2022-08-03T04:45:20;2.03;;;1.92;;
24663;SDS011;12791;50.992;13.788;2022-08-03T04:47:50;1.80;;;1.70;;
24663;SDS011;12791;50.992;13.788;2022-08-03T04:50:17;2.22;;;2.13;;
24663;SDS011;12791;50.992;13.788;2022-08-03T04:52:46;2.40;;;2.30;;
24663;SDS011;12791;50.992;13.788;2022-08-03T04:55:23;2.13;;;1.90;;
24663;SDS011;12791;50.992;13.788;2022-08-03T04:57:50;2.38;;;2.28;;
24663;SDS011;12791;50.992;13.788;2022-08-03T05:00:17;1.90;;;1.80;;
24663;SDS011;12791;50.992;13.788;2022-08-03T05:02:44;2.50;;;2.30;;
24663;SDS011;12791;50.992;13.788;2022-08-03T05:05:12;2.17;;;2.00;;
24663;SDS011;12791;50.992;13.788;2022-08-03T05:07:39;2.90;;;2.30;;
24663;SDS011;12791;50.992;13.788;2022-08-03T05:10:07;2.70;;;2.47;;
24663;SDS011;12791;50.992;13.788;2022-08-03T05:12:35;3.65;;;2.60;;
24663;SDS011;12791;50.992;13.788;2022-08-03T05:15:02;5.10;;;2.38;;
24663;SDS011;12791;50.992;13.788;2022-08-03T05:17:29;2.58;;;2.38;;
24663;SDS011;12791;50.992;13.788;2022-08-03T05:19:58;2.40;;;2.20;;
24663;SDS011;12791;50.992;13.788;2022-08-03T05:22:26;3.08;;;2.88;;
24663;SDS011;12791;50.992;13.788;2022-08-03T05:24:53;2.20;;;2.00;;
24663;SDS011;12791;50.992;13.788;2022-08-03T05:27:19;2.60;;;2.08;;
24663;SDS011;12791;50.992;13.788;2022-08-03T05:29:46;1.60;;;1.50;;
24663;SDS011;12791;50.992;13.788;2022-08-03T05:32:15;5.57;;;2.20;;
24663;SDS011;12791;50.992;13.788;2022-08-03T05:34:42;7.43;;;2.70;;
24663;SDS011;12791;50.992;13.788;2022-08-03T05:37:09;8.32;;;2.53;;
24663;SDS011;12791;50.992;13.788;2022-08-03T05:39:37;3.63;;;2.38;;
24663;SDS011;12791;50.992;13.788;2022-08-03T05:42:04;3.45;;;2.00;;
24663;SDS011;12791;50.992;13.788;2022-08-03T05:44:30;2.55;;;2.08;;
24663;SDS011;12791;50.992;13.788;2022-08-03T05:46:57;2.22;;;2.13;;
24663;SDS011;12791;50.992;13.788;2022-08-03T05:49:24;2.67;;;2.47;;
24663;SDS011;12791;50.992;13.788;2022-08-03T05:51:50;2.33;;;1.90;;
24663;SDS011;12791;50.992;13.788;2022-08-03T05:54:17;1.88;;;1.77;;
24663;SDS011;12791;50.992;13.788;2022-08-03T05:56:45;2.03;;;1.92;;
24663;SDS011;12791;50.992;13.788;2022-08-03T05:59:12;4.03;;;2.50;;
24663;SDS011;12791;50.992;13.788;2022-08-03T06:01:38;3.78;;;3.47;;
24663;SDS011;12791;50.992;13.788;2022-08-03T06:04:05;5.45;;;3.38;;
24663;SDS011;12791;50.992;13.788;2022-08-03T06:06:32;5.20;;;3.03;;
24663;SDS011;12791;50.992;13.788;2022-08-03T06:08:58;4.22;;;3.03;;
24663;SDS011;12791;50.992;13.788;2022-08-03T06:11:25;3.40;;;3.10;;
24663;SDS011;12791;50.992;13.788;2022-08-03T06:13:53;7.03;;;3.47;;
24663;SDS011;12791;50.992;13.788;2022-08-03T06:16:19;4.78;;;3.60;;
24663;SDS011;12791;50.992;13.788;2022-08-03T06:18:46;3.25;;;2.95;;
24663;SDS011;12791;50.992;13.788;2022-08-03T06:21:13;5.40;;;3.13;;
24663;SDS011;12791;50.992;13.788;2022-08-03T06:23:40;3.47;;;3.00;;
24663;SDS011;12791;50.992;13.788;2022-08-03T06:26:07;4.03;;;3.30;;
24663;SDS011;12791;50.992;13.788;2022-08-03T06:28:34;2.83;;;2.67;;
24663;SDS011;12791;50.992;13.788;2022-08-03T06:31:02;4.18;;;3.15;;
24663;SDS011;12791;50.992;13.788;2022-08-03T06:33:28;6.05;;;3.90;;
24663;SDS011;12791;50.992;13.788;2022-08-03T06:35:55;3.58;;;3.28;;
24663;SDS011;12791;50.992;13.788;2022-08-03T06:38:22;3.08;;;2.88;;
24663;SDS011;12791;50.992;13.788;2022-08-03T06:40:48;3.35;;;3.03;;
24663;SDS011;12791;50.992;13.788;2022-08-03T06:43:15;2.40;;;2.22;;
24663;SDS011;12791;50.992;13.788;2022-08-03T06:45:41;2.83;;;2.33;;
24663;SDS011;12791;50.992;13.788;2022-08-03T06:48:10;3.17;;;2.97;;
24663;SDS011;12791;50.992;13.788;2022-08-03T06:50:38;7.65;;;3.08;;
24663;SDS011;12791;50.992;13.788;2022-08-03T06:53:06;6.60;;;3.65;;
24663;SDS011;12791;50.992;13.788;2022-08-03T06:55:34;4.30;;;2.88;;
24663;SDS011;12791;50.992;13.788;2022-08-03T06:58:00;5.72;;;3.55;;
24663;SDS011;12791;50.992;13.788;2022-08-03T07:00:27;5.55;;;3.20;;
24663;SDS011;12791;50.992;13.788;2022-08-03T07:02:54;3.30;;;3.10;;
24663;SDS011;12791;50.992;13.788;2022-08-03T07:05:22;5.32;;;3.38;;
24663;SDS011;12791;50.992;13.788;2022-08-03T07:07:49;5.38;;;3.42;;
24663;SDS011;12791;50.992;13.788;2022-08-03T07:10:19;4.18;;;3.78;;
24663;SDS011;12791;50.992;13.788;2022-08-03T07:12:46;5.05;;;3.60;;
24663;SDS011;12791;50.992;13.788;2022-08-03T07:15:12;4.95;;;3.70;;
24663;SDS011;12791;50.992;13.788;2022-08-03T07:17:39;5.97;;;3.40;;
24663;SDS011;12791;50.992;13.788;2022-08-03T07:20:06;2.90;;;2.70;;
24663;SDS011;12791;50.992;13.788;2022-08-03T07:22:35;3.47;;;3.17;;
24663;SDS011;12791;50.992;13.788;2022-08-03T07:25:03;5.40;;;3.40;;
24663;SDS011;12791;50.992;13.788;2022-08-03T07:27:30;4.40;;;3.47;;
24663;SDS011;12791;50.992;13.788;2022-08-03T07:29:57;3.03;;;2.83;;
24663;SDS011;12791;50.992;13.788;2022-08-03T07:32:24;3.35;;;3.00;;
24663;SDS011;12791;50.992;13.788;2022-08-03T07:34:52;3.85;;;3.10;;
24663;SDS011;12791;50.992;13.788;2022-08-03T07:37:19;2.55;;;2.42;;
24663;SDS011;12791;50.992;13.788;2022-08-03T07:39:46;2.83;;;2.50;;
24663;SDS011;12791;50.992;13.788;2022-08-03T07:42:13;2.35;;;2.20;;
24663;SDS011;12791;50.992;13.788;2022-08-03T07:44:40;3.00;;;2.80;;
24663;SDS011;12791;50.992;13.788;2022-08-03T07:47:07;4.30;;;2.58;;
24663;SDS011;12791;50.992;13.788;2022-08-03T07:49:37;2.45;;;2.20;;
24663;SDS011;12791;50.992;13.788;2022-08-03T07:52:04;3.45;;;2.70;;
24663;SDS011;12791;50.992;13.788;2022-08-03T07:54:50;2.25;;;2.10;;
24663;SDS011;12791;50.992;13.788;2022-08-03T07:57:16;2.30;;;2.10;;
24663;SDS011;12791;50.992;13.788;2022-08-03T07:59:44;1.98;;;1.88;;
24663;SDS011;12791;50.992;13.788;2022-08-03T08:02:11;1.88;;;1.77;;
24663;SDS011;12791;50.992;13.788;2022-08-03T08:04:38;1.60;;;1.50;;
24663;SDS011;12791;50.992;13.788;2022-08-03T08:07:04;1.90;;;1.80;;
24663;SDS011;12791;50.992;13.788;2022-08-03T08:09:31;2.45;;;2.25;;
24663;SDS011;12791;50.992;13.788;2022-08-03T08:11:59;1.95;;;1.85;;
24663;SDS011;12791;50.992;13.788;2022-08-03T08:14:26;2.88;;;2.17;;
24663;SDS011;12791;50.992;13.788;2022-08-03T08:16:52;2.70;;;2.20;;
24663;SDS011;12791;50.992;13.788;2022-08-03T08:19:19;2.33;;;2.20;;
24663;SDS011;12791;50.992;13.788;2022-08-03T08:21:46;5.28;;;3.15;;
24663;SDS011;12791;50.992;13.788;2022-08-03T08:24:12;3.40;;;2.25;;
24663;SDS011;12791;50.992;13.788;2022-08-03T08:26:39;2.80;;;2.10;;
24663;SDS011;12791;50.992;13.788;2022-08-03T08:29:07;2.35;;;2.17;;
24663;SDS011;12791;50.992;13.788;2022-08-03T08:31:34;1.98;;;1.88;;
24663;SDS011;12791;50.992;13.788;2022-08-03T08:34:00;1.75;;;1.65;;
24663;SDS011;12791;50.992;13.788;2022-08-03T08:36:29;2.05;;;1.95;;
24663;SDS011;12791;50.992;13.788;2022-08-03T08:38:57;3.42;;;2.47;;
24663;SDS011;12791;50.992;13.788;2022-08-03T08:41:23;2.38;;;2.20;;
24663;SDS011;12791;50.992;13.788;2022-08-03T08:43:50;4.00;;;2.15;;
24663;SDS011;12791;50.992;13.788;2022-08-03T08:46:18;5.22;;;3.03;;
24663;SDS011;12791;50.992;13.788;2022-08-03T08:48:46;4.13;;;2.47;;
24663;SDS011;12791;50.992;13.788;2022-08-03T08:51:14;2.40;;;2.30;;
24663;SDS011;12791;50.992;13.788;2022-08-03T08:53:44;2.55;;;2.33;;
24663;SDS011;12791;50.992;13.788;2022-08-03T08:56:14;5.82;;;2.42;;
24663;SDS011;12791;50.992;13.788;2022-08-03T08:58:43;2.67;;;1.95;;
24663;SDS011;12791;50.992;13.788;2022-08-03T09:01:14;3.60;;;2.25;;
24663;SDS011;12791;50.992;13.788;2022-08-03T09:03:44;5.00;;;1.85;;
24663;SDS011;12791;50.992;13.788;2022-08-03T09:06:11;4.50;;;2.25;;
24663;SDS011;12791;50.992;13.788;2022-08-03T09:08:38;2.13;;;2.00;;
24663;SDS011;12791;50.992;13.788;2022-08-03T09:11:05;1.80;;;1.65;;
24663;SDS011;12791;50.992;13.788;2022-08-03T09:13:32;2.33;;;2.13;;
24663;SDS011;12791;50.992;13.788;2022-08-03T09:18:47;6.25;;;2.10;;
24663;SDS011;12791;50.992;13.788;2022-08-03T09:21:16;2.97;;;1.63;;
24663;SDS011;12791;50.992;13.788;2022-08-03T09:23:44;2.92;;;1.80;;
24663;SDS011;12791;50.992;13.788;2022-08-03T09:26:12;1.50;;;1.40;;
24663;SDS011;12791;50.992;13.788;2022-08-03T09:28:45;2.25;;;1.88;;
24663;SDS011;12791;50.992;13.788;2022-08-03T09:31:12;2.75;;;1.67;;
24663;SDS011;12791;50.992;13.788;2022-08-03T09:33:46;2.85;;;1.80;;
24663;SDS011;12791;50.992;13.788;2022-08-03T09:39:00;1.83;;;1.58;;
24663;SDS011;12791;50.992;13.788;2022-08-03T09:41:29;1.23;;;1.20;;
24663;SDS011;12791;50.992;13.788;2022-08-03T09:43:56;4.68;;;1.98;;
24663;SDS011;12791;50.992;13.788;2022-08-03T09:46:23;2.35;;;1.58;;
24663;SDS011;12791;50.992;13.788;2022-08-03T09:48:50;1.45;;;1.45;;
24663;SDS011;12791;50.992;13.788;2022-08-03T09:51:19;1.73;;;1.52;;
24663;SDS011;12791;50.992;13.788;2022-08-03T09:53:49;2.00;;;1.50;;
24663;SDS011;12791;50.992;13.788;2022-08-03T09:56:16;1.83;;;1.20;;
24663;SDS011;12791;50.992;13.788;2022-08-03T09:58:44;1.75;;;1.65;;
24663;SDS011;12791;50.992;13.788;2022-08-03T10:01:11;1.52;;;1.42;;
24663;SDS011;12791;50.992;13.788;2022-08-03T10:03:39;3.00;;;1.58;;
24663;SDS011;12791;50.992;13.788;2022-08-03T10:06:17;2.30;;;1.42;;
24663;SDS011;12791;50.992;13.788;2022-08-03T10:08:46;2.05;;;1.77;;
24663;SDS011;12791;50.992;13.788;2022-08-03T10:11:29;2.55;;;1.73;;
24663;SDS011;12791;50.992;13.788;2022-08-03T10:13:56;3.67;;;1.40;;
24663;SDS011;12791;50.992;13.788;2022-08-03T10:16:23;1.52;;;1.50;;
24663;SDS011;12791;50.992;13.788;2022-08-03T10:18:50;1.45;;;1.45;;
24663;SDS011;12791;50.992;13.788;2022-08-03T10:21:18;1.83;;;1.73;;
24663;SDS011;12791;50.992;13.788;2022-08-03T10:23:46;1.23;;;1.23;;
24663;SDS011;12791;50.992;13.788;2022-08-03T10:26:15;4.10;;;2.25;;
24663;SDS011;12791;50.992;13.788;2022-08-03T10:28:45;1.58;;;1.48;;
24663;SDS011;12791;50.992;13.788;2022-08-03T10:31:14;1.50;;;1.38;;
24663;SDS011;12791;50.992;13.788;2022-08-03T10:33:43;1.70;;;1.60;;
24663;SDS011;12791;50.992;13.788;2022-08-03T10:36:14;1.80;;;1.48;;
24663;SDS011;12791;50.992;13.788;2022-08-03T10:38:43;1.90;;;1.80;;
24663;SDS011;12791;50.992;13.788;2022-08-03T10:41:16;3.10;;;1.50;;
24663;SDS011;12791;50.992;13.788;2022-08-03T10:43:46;2.97;;;1.92;;
24663;SDS011;12791;50.992;13.788;2022-08-03T10:46:18;1.95;;;1.60;;
24663;SDS011;12791;50.992;13.788;2022-08-03T10:48:47;2.25;;;1.48;;
24663;SDS011;12791;50.992;13.788;2022-08-03T10:51:16;1.63;;;1.52;;
24663;SDS011;12791;50.992;13.788;2022-08-03T10:53:45;2.33;;;2.22;;
24663;SDS011;12791;50.992;13.788;2022-08-03T11:05:30;3.13;;;1.67;;
24663;SDS011;12791;50.992;13.788;2022-08-03T11:08:18;1.70;;;1.50;;
24663;SDS011;12791;50.992;13.788;2022-08-03T11:10:58;1.65;;;1.48;;
24663;SDS011;12791;50.992;13.788;2022-08-03T11:13:27;1.65;;;1.55;;
24663;SDS011;12791;50.992;13.788;2022-08-03T11:15:58;1.63;;;1.52;;
24663;SDS011;12791;50.992;13.788;2022-08-03T11:18:28;1.88;;;1.30;;
24663;SDS011;12791;50.992;13.788;2022-08-03T11:20:55;3.00;;;1.60;;
24663;SDS011;12791;50.992;13.788;2022-08-03T11:23:39;2.25;;;1.48;;
24663;SDS011;12791;50.992;13.788;2022-08-03T11:26:09;2.35;;;1.45;;
24663;SDS011;12791;50.992;13.788;2022-08-03T11:28:37;1.48;;;1.48;;
24663;SDS011;12791;50.992;13.788;2022-08-03T11:34:09;2.25;;;1.58;;
24663;SDS011;12791;50.992;13.788;2022-08-03T11:39:38;1.67;;;1.55;;
24663;SDS011;12791;50.992;13.788;2022-08-03T11:45:09;1.48;;;1.38;;
24663;SDS011;12791;50.992;13.788;2022-08-03T11:47:36;4.70;;;1.70;;
24663;SDS011;12791;50.992;13.788;2022-08-03T11:50:05;1.42;;;1.15;;
24663;SDS011;12791;50.992;13.788;2022-08-03T11:52:33;2.17;;;1.48;;
24663;SDS011;12791;50.992;13.788;2022-08-03T11:55:01;2.95;;;1.77;;
24663;SDS011;12791;50.992;13.788;2022-08-03T11:57:33;2.40;;;1.45;;
24663;SDS011;12791;50.992;13.788;2022-08-03T12:00:02;2.95;;;2.03;;
24663;SDS011;12791;50.992;13.788;2022-08-03T12:02:52;2.38;;;1.30;;
24663;SDS011;12791;50.992;13.788;2022-08-03T12:05:20;2.80;;;1.50;;
24663;SDS011;12791;50.992;13.788;2022-08-03T12:07:57;2.75;;;1.20;;
24663;SDS011;12791;50.992;13.788;2022-08-03T12:10:24;2.25;;;1.40;;
24663;SDS011;12791;50.992;13.788;2022-08-03T12:12:54;1.58;;;1.48;;
24663;SDS011;12791;50.992;13.788;2022-08-03T12:15:25;3.70;;;1.50;;
24663;SDS011;12791;50.992;13.788;2022-08-03T12:17:52;2.90;;;1.45;;
24663;SDS011;12791;50.992;13.788;2022-08-03T12:20:20;1.13;;;1.13;;
24663;SDS011;12791;50.992;13.788;2022-08-03T12:22:47;1.25;;;1.20;;
24663;SDS011;12791;50.992;13.788;2022-08-03T12:25:19;5.85;;;1.23;;
24663;SDS011;12791;50.992;13.788;2022-08-03T12:27:47;1.30;;;1.20;;
24663;SDS011;12791;50.992;13.788;2022-08-03T12:30:14;2.53;;;1.45;;
24663;SDS011;12791;50.992;13.788;2022-08-03T12:32:43;1.52;;;1.38;;
24663;SDS011;12791;50.992;13.788;2022-08-03T12:35:10;1.60;;;1.50;;
24663;SDS011;12791;50.992;13.788;2022-08-03T12:37:48;2.42;;;1.67;;
24663;SDS011;12791;50.992;13.788;2022-08-03T12:40:23;2.08;;;1.40;;
24663;SDS011;12791;50.992;13.788;2022-08-03T12:42:51;1.67;;;1.30;;
24663;SDS011;12791;50.992;13.788;2022-08-03T12:45:18;1.50;;;1.40;;
24663;SDS011;12791;50.992;13.788;2022-08-03T12:47:51;2.03;;;1.38;;
24663;SDS011;12791;50.992;13.788;2022-08-03T12:50:23;4.32;;;1.50;;
24663;SDS011;12791;50.992;13.788;2022-08-03T12:52:51;1.40;;;1.13;;
24663;SDS011;12791;50.992;13.788;2022-08-03T12:55:18;1.45;;;1.35;;
24663;SDS011;12791;50.992;13.788;2022-08-03T12:57:46;3.97;;;1.30;;
24663;SDS011;12791;50.992;13.788;2022-08-03T13:00:14;2.22;;;1.08;;
24663;SDS011;12791;50.992;13.788;2022-08-03T13:02:42;1.75;;;1.10;;
24663;SDS011;12791;50.992;13.788;2022-08-03T13:05:10;2.85;;;1.40;;
24663;SDS011;12791;50.992;13.788;2022-08-03T13:07:39;1.77;;;1.13;;
24663;SDS011;12791;50.992;13.788;2022-08-03T13:10:07;2.47;;;1.20;;
24663;SDS011;12791;50.992;13.788;2022-08-03T13:12:44;2.25;;;1.00;;
24663;SDS011;12791;50.992;13.788;2022-08-03T13:15:12;2.15;;;1.15;;
24663;SDS011;12791;50.992;13.788;2022-08-03T13:17:39;1.02;;;1.02;;
24663;SDS011;12791;50.992;13.788;2022-08-03T13:20:07;1.65;;;1.05;;
24663;SDS011;12791;50.992;13.788;2022-08-03T13:22:35;2.03;;;1.30;;
24663;SDS011;12791;50.992;13.788;2022-08-03T13:25:02;2.75;;;1.42;;
24663;SDS011;12791;50.992;13.788;2022-08-03T13:27:30;1.42;;;1.17;;
24663;SDS011;12791;50.992;13.788;2022-08-03T13:29:57;1.23;;;1.10;;
24663;SDS011;12791;50.992;13.788;2022-08-03T13:32:23;2.85;;;1.45;;
24663;SDS011;12791;50.992;13.788;2022-08-03T13:34:50;1.33;;;1.30;;
24663;SDS011;12791;50.992;13.788;2022-08-03T13:37:17;1.60;;;1.00;;
24663;SDS011;12791;50.992;13.788;2022-08-03T13:39:45;1.00;;;1.00;;
24663;SDS011;12791;50.992;13.788;2022-08-03T13:42:12;2.28;;;0.93;;
24663;SDS011;12791;50.992;13.788;2022-08-03T13:44:38;1.00;;;1.00;;
24663;SDS011;12791;50.992;13.788;2022-08-03T13:47:05;2.00;;;1.17;;
24663;SDS011;12791;50.992;13.788;2022-08-03T13:49:32;1.73;;;1.25;;
24663;SDS011;12791;50.992;13.788;2022-08-03T13:51:58;1.00;;;1.00;;
24663;SDS011;12791;50.992;13.788;2022-08-03T13:54:25;1.00;;;0.93;;
24663;SDS011;12791;50.992;13.788;2022-08-03T13:56:54;1.17;;;1.17;;
24663;SDS011;12791;50.992;13.788;2022-08-03T13:59:21;1.73;;;1.45;;
24663;SDS011;12791;50.992;13.788;2022-08-03T14:01:49;1.00;;;0.90;;
24663;SDS011;12791;50.992;13.788;2022-08-03T14:04:17;0.93;;;0.93;;
24663;SDS011;12791;50.992;13.788;2022-08-03T14:06:44;0.93;;;0.90;;
24663;SDS011;12791;50.992;13.788;2022-08-03T14:09:12;1.77;;;1.00;;
24663;SDS011;12791;50.992;13.788;2022-08-03T14:11:39;1.10;;;0.80;;
24663;SDS011;12791;50.992;13.788;2022-08-03T14:14:07;1.40;;;1.00;;
24663;SDS011;12791;50.992;13.788;2022-08-03T14:16:34;1.55;;;1.13;;
24663;SDS011;12791;50.992;13.788;2022-08-03T14:19:01;0.80;;;0.80;;
24663;SDS011;12791;50.992;13.788;2022-08-03T14:21:27;4.05;;;1.42;;
24663;SDS011;12791;50.992;13.788;2022-08-03T14:23:54;1.58;;;1.05;;
24663;SDS011;12791;50.992;13.788;2022-08-03T14:26:21;1.33;;;1.23;;
24663;SDS011;12791;50.992;13.788;2022-08-03T14:28:48;0.90;;;0.90;;
24663;SDS011;12791;50.992;13.788;2022-08-03T14:31:16;1.05;;;1.00;;
24663;SDS011;12791;50.992;13.788;2022-08-03T14:33:42;2.47;;;1.30;;
24663;SDS011;12791;50.992;13.788;2022-08-03T14:36:09;1.98;;;1.10;;
24663;SDS011;12791;50.992;13.788;2022-08-03T14:38:36;3.35;;;1.05;;
24663;SDS011;12791;50.992;13.788;2022-08-03T14:41:02;1.27;;;1.17;;
24663;SDS011;12791;50.992;13.788;2022-08-03T14:43:29;2.10;;;1.10;;
24663;SDS011;12791;50.992;13.788;2022-08-03T14:45:55;0.75;;;0.70;;
24663;SDS011;12791;50.992;13.788;2022-08-03T14:48:23;0.80;;;0.80;;
24663;SDS011;12791;50.992;13.788;2022-08-03T14:50:51;1.00;;;0.90;;
24663;SDS011;12791;50.992;13.788;2022-08-03T14:53:19;1.08;;;1.02;;
24663;SDS011;12791;50.992;13.788;2022-08-03T14:55:46;1.48;;;0.90;;
24663;SDS011;12791;50.992;13.788;2022-08-03T14:58:13;1.00;;;1.00;;
24663;SDS011;12791;50.992;13.788;2022-08-03T15:00:40;1.20;;;1.00;;
24663;SDS011;12791;50.992;13.788;2022-08-03T15:03:06;2.67;;;0.85;;
24663;SDS011;12791;50.992;13.788;2022-08-03T15:05:34;1.58;;;1.00;;